Franklin Springs, Georgia
Current Conditions -  °F | °C
As of 8:35 PM on Friday 21 Nov 2014 (Local Time) from KTOC Reporting Station
Clear Clear  
Wind Chill: 40°   Ceiling: Unl
Heat Index: 43°   Visibility: 10mi
Dew Point: 31°   Wind: 5mph
Humidity: 62%   Direction: 350°N
Pressure: 30.41"   Gusts: NA
Location:  34.28°N, 83.14°W
Report Text: KTOC 220135Z AUTO 35004KT 10SM CLR 06/M01 A3041 RMK AO2 T00621006
Loading
Personal Weather Stations






























Interactive Weather Map New forecast layout! Learn more

10-Day Weather Forecast

Advertisements
Track Severe Weather on mobile